sensor_id;sensor_type;location;lat;lon;timestamp;pressure;altitude;pressure_sealevel;temperature;humidity
7170;BME280;3626;42.656;23.312;2023-01-28T00:00:04;93909.31;;;-1.21;100.00
7170;BME280;3626;42.656;23.312;2023-01-28T00:00:11;93908.41;;;-1.20;100.00
7170;BME280;3626;42.656;23.312;2023-01-28T00:00:18;93907.59;;;-1.21;100.00
7170;BME280;3626;42.656;23.312;2023-01-28T00:00:24;93913.59;;;-1.22;100.00
7170;BME280;3626;42.656;23.312;2023-01-28T00:00:30;93917.03;;;-1.23;100.00
7170;BME280;3626;42.656;23.312;2023-01-28T00:00:36;93917.03;;;-1.23;100.00
7170;BME280;3626;42.656;23.312;2023-01-28T00:00:42;93916.22;;;-1.23;100.00
7170;BME280;3626;42.656;23.312;2023-01-28T00:00:48;93913.13;;;-1.27;100.00
7170;BME280;3626;42.656;23.312;2023-01-28T00:00:54;93916.47;;;-1.27;100.00
7170;BME280;3626;42.656;23.312;2023-01-28T00:01:04;93907.34;;;-1.29;100.00
7170;BME280;3626;42.656;23.312;2023-01-28T00:01:15;93914.03;;;-1.28;100.00
7170;BME280;3626;42.656;23.312;2023-01-28T00:01:22;93919.09;;;-1.28;100.00
7170;BME280;3626;42.656;23.312;2023-01-28T00:01:28;93915.66;;;-1.27;100.00
7170;BME280;3626;42.656;23.312;2023-01-28T00:01:34;93913.13;;;-1.27;100.00
7170;BME280;3626;42.656;23.312;2023-01-28T00:01:40;93917.34;;;-1.28;100.00
7170;BME280;3626;42.656;23.312;2023-01-28T00:01:46;93908.97;;;-1.28;100.00
7170;BME280;3626;42.656;23.312;2023-01-28T00:01:52;93910.69;;;-1.29;100.00
7170;BME280;3626;42.656;23.312;2023-01-28T00:01:58;93912.28;;;-1.28;100.00
7170;BME280;3626;42.656;23.312;2023-01-28T00:02:04;93915.66;;;-1.27;100.00
7170;BME280;3626;42.656;23.312;2023-01-28T00:02:11;93913.13;;;-1.27;100.00
7170;BME280;3626;42.656;23.312;2023-01-28T00:02:17;93915.66;;;-1.27;100.00
7170;BME280;3626;42.656;23.312;2023-01-28T00:02:23;93919.66;;;-1.24;100.00
7170;BME280;3626;42.656;23.312;2023-01-28T00:02:29;93916.34;;;-1.25;100.00
7170;BME280;3626;42.656;23.312;2023-01-28T00:02:36;93911.28;;;-1.25;100.00
7170;BME280;3626;42.656;23.312;2023-01-28T00:02:42;93908.75;;;-1.25;100.00
7170;BME280;3626;42.656;23.312;2023-01-28T00:02:48;93910.47;;;-1.26;100.00
7170;BME280;3626;42.656;23.312;2023-01-28T00:02:54;93914.59;;;-1.24;100.00
7170;BME280;3626;42.656;23.312;2023-01-28T00:03:00;93908.75;;;-1.25;100.00
7170;BME280;3626;42.656;23.312;2023-01-28T00:03:07;93917.03;;;-1.23;100.00
7170;BME280;3626;42.656;23.312;2023-01-28T00:03:13;93919.56;;;-1.23;100.00
7170;BME280;3626;42.656;23.312;2023-01-28T00:03:20;93911.16;;;-1.23;100.00
7170;BME280;3626;42.656;23.312;2023-01-28T00:03:26;93913.81;;;-1.25;100.00
7170;BME280;3626;42.656;23.312;2023-01-28T00:03:32;93918.06;;;-1.26;100.00
7170;BME280;3626;42.656;23.312;2023-01-28T00:03:38;93913.94;;;-1.27;100.00
7170;BME280;3626;42.656;23.312;2023-01-28T00:03:48;93912.19;;;-1.26;100.00
7170;BME280;3626;42.656;23.312;2023-01-28T00:03:55;93909.75;;;-1.28;100.00
7170;BME280;3626;42.656;23.312;2023-01-28T00:04:01;93915.66;;;-1.27;100.00
7170;BME280;3626;42.656;23.312;2023-01-28T00:04:07;93913.00;;;-1.26;100.00
7170;BME280;3626;42.656;23.312;2023-01-28T00:04:13;93916.34;;;-1.25;100.00
7170;BME280;3626;42.656;23.312;2023-01-28T00:04:20;93913.81;;;-1.25;100.00
7170;BME280;3626;42.656;23.312;2023-01-28T00:04:26;93911.41;;;-1.27;100.00
7170;BME280;3626;42.656;23.312;2023-01-28T00:04:32;93913.13;;;-1.27;100.00
7170;BME280;3626;42.656;23.312;2023-01-28T00:04:38;93916.47;;;-1.27;100.00
7170;BME280;3626;42.656;23.312;2023-01-28T00:04:44;93915.66;;;-1.27;100.00
7170;BME280;3626;42.656;23.312;2023-01-28T00:04:50;93912.19;;;-1.26;100.00
7170;BME280;3626;42.656;23.312;2023-01-28T00:04:56;93912.19;;;-1.26;100.00
7170;BME280;3626;42.656;23.312;2023-01-28T00:05:02;93915.53;;;-1.26;100.00
7170;BME280;3626;42.656;23.312;2023-01-28T00:05:09;93918.88;;;-1.25;100.00
7170;BME280;3626;42.656;23.312;2023-01-28T00:05:15;93916.22;;;-1.23;100.00
7170;BME280;3626;42.656;23.312;2023-01-28T00:05:21;93914.38;;;-1.21;100.00
7170;BME280;3626;42.656;23.312;2023-01-28T00:05:28;93913.59;;;-1.22;100.00
7170;BME280;3626;42.656;23.312;2023-01-28T00:05:34;93916.78;;;-1.20;100.00
7170;BME280;3626;42.656;23.312;2023-01-28T00:05:40;93917.59;;;-1.19;100.00
7170;BME280;3626;42.656;23.312;2023-01-28T00:05:47;93913.38;;;-1.19;100.00
7170;BME280;3626;42.656;23.312;2023-01-28T00:06:01;93910.84;;;-1.19;100.00
7170;BME280;3626;42.656;23.312;2023-01-28T00:06:10;93916.59;;;-1.17;100.00
7170;BME280;3626;42.656;23.312;2023-01-28T00:06:16;93914.06;;;-1.17;100.00
7170;BME280;3626;42.656;23.312;2023-01-28T00:06:23;93918.31;;;-1.17;100.00
7170;BME280;3626;42.656;23.312;2023-01-28T00:06:29;93911.53;;;-1.17;100.00
7170;BME280;3626;42.656;23.312;2023-01-28T00:06:35;93908.97;;;-1.17;100.00
7170;BME280;3626;42.656;23.312;2023-01-28T00:06:42;93918.19;;;-1.16;100.00
7170;BME280;3626;42.656;23.312;2023-01-28T00:06:48;93919.00;;;-1.15;100.00
7170;BME280;3626;42.656;23.312;2023-01-28T00:06:54;93919.91;;;-1.16;100.00
7170;BME280;3626;42.656;23.312;2023-01-28T00:07:00;93913.94;;;-1.15;100.00
7170;BME280;3626;42.656;23.312;2023-01-28T00:07:06;93916.59;;;-1.17;100.00
7170;BME280;3626;42.656;23.312;2023-01-28T00:07:13;93917.38;;;-1.16;100.00
7170;BME280;3626;42.656;23.312;2023-01-28T00:07:20;93913.13;;;-1.16;100.00
7170;BME280;3626;42.656;23.312;2023-01-28T00:07:26;93917.38;;;-1.16;100.00
7170;BME280;3626;42.656;23.312;2023-01-28T00:07:32;93919.78;;;-1.15;100.00
7170;BME280;3626;42.656;23.312;2023-01-28T00:07:38;93913.94;;;-1.15;100.00
7170;BME280;3626;42.656;23.312;2023-01-28T00:07:44;93914.72;;;-1.15;100.00
7170;BME280;3626;42.656;23.312;2023-01-28T00:07:50;93916.38;;;-1.14;100.00
7170;BME280;3626;42.656;23.312;2023-01-28T00:07:56;93914.63;;;-1.13;100.00
7170;BME280;3626;42.656;23.312;2023-01-28T00:08:02;93910.59;;;-1.16;100.00
7170;BME280;3626;42.656;23.312;2023-01-28T00:08:08;93914.72;;;-1.15;100.00
7170;BME280;3626;42.656;23.312;2023-01-28T00:08:15;93913.13;;;-1.16;100.00
7170;BME280;3626;42.656;23.312;2023-01-28T00:08:21;93917.25;;;-1.15;100.00
7170;BME280;3626;42.656;23.312;2023-01-28T00:08:27;93923.97;;;-1.14;100.00
7170;BME280;3626;42.656;23.312;2023-01-28T00:08:33;93916.47;;;-1.15;100.00
7170;BME280;3626;42.656;23.312;2023-01-28T00:08:40;93921.53;;;-1.15;100.00
7170;BME280;3626;42.656;23.312;2023-01-28T00:08:47;93914.16;;;-1.18;100.00
7170;BME280;3626;42.656;23.312;2023-01-28T00:08:53;93919.31;;;-1.20;100.00
7170;BME280;3626;42.656;23.312;2023-01-28T00:09:00;93917.72;;;-1.21;100.00
7170;BME280;3626;42.656;23.312;2023-01-28T00:09:06;93913.59;;;-1.22;100.00
7170;BME280;3626;42.656;23.312;2023-01-28T00:09:14;93922.09;;;-1.23;100.00
7170;BME280;3626;42.656;23.312;2023-01-28T00:09:20;93921.97;;;-1.21;100.00
7170;BME280;3626;42.656;23.312;2023-01-28T00:09:26;93923.72;;;-1.22;100.00
7170;BME280;3626;42.656;23.312;2023-01-28T00:09:32;93917.03;;;-1.23;100.00
7170;BME280;3626;42.656;23.312;2023-01-28T00:09:38;93916.13;;;-1.22;100.00
7170;BME280;3626;42.656;23.312;2023-01-28T00:09:44;93915.31;;;-1.22;100.00
7170;BME280;3626;42.656;23.312;2023-01-28T00:09:50;93922.09;;;-1.23;100.00
7170;BME280;3626;42.656;23.312;2023-01-28T00:09:56;93922.09;;;-1.23;100.00
7170;BME280;3626;42.656;23.312;2023-01-28T00:10:05;93928.88;;;-1.23;100.00
7170;BME280;3626;42.656;23.312;2023-01-28T00:10:11;93926.34;;;-1.23;100.00
7170;BME280;3626;42.656;23.312;2023-01-28T00:10:17;93923.81;;;-1.23;100.00
7170;BME280;3626;42.656;23.312;2023-01-28T00:10:23;93917.84;;;-1.22;100.00
7170;BME280;3626;42.656;23.312;2023-01-28T00:10:29;93925.31;;;-1.21;100.00
7170;BME280;3626;42.656;23.312;2023-01-28T00:10:35;93927.84;;;-1.21;100.00
7170;BME280;3626;42.656;23.312;2023-01-28T00:10:44;93927.84;;;-1.21;100.00
7170;BME280;3626;42.656;23.312;2023-01-28T00:10:49;93920.25;;;-1.21;100.00
7170;BME280;3626;42.656;23.312;2023-01-28T00:10:57;93923.72;;;-1.22;100.00
7170;BME280;3626;42.656;23.312;2023-01-28T00:11:05;93926.13;;;-1.20;100.00
7170;BME280;3626;42.656;23.312;2023-01-28T00:11:12;93923.72;;;-1.22;100.00
7170;BME280;3626;42.656;23.312;2023-01-28T00:11:20;93924.50;;;-1.21;100.00
7170;BME280;3626;42.656;23.312;2023-01-28T00:11:27;93924.63;;;-1.23;100.00
7170;BME280;3626;42.656;23.312;2023-01-28T00:11:33;93924.72;;;-1.24;100.00
7170;BME280;3626;42.656;23.312;2023-01-28T00:11:43;93923.94;;;-1.25;100.00
7170;BME280;3626;42.656;23.312;2023-01-28T00:11:49;93921.41;;;-1.25;100.00
7170;BME280;3626;42.656;23.312;2023-01-28T00:11:56;93923.00;;;-1.24;100.00
7170;BME280;3626;42.656;23.312;2023-01-28T00:12:02;93924.72;;;-1.24;100.00
7170;BME280;3626;42.656;23.312;2023-01-28T00:12:08;93927.16;;;-1.23;100.00
7170;BME280;3626;42.656;23.312;2023-01-28T00:12:14;93918.88;;;-1.25;100.00
7170;BME280;3626;42.656;23.312;2023-01-28T00:12:19;93928.78;;;-1.22;100.00
7170;BME280;3626;42.656;23.312;2023-01-28T00:12:25;93937.97;;;-1.21;100.00
7170;BME280;3626;42.656;23.312;2023-01-28T00:12:31;93926.25;;;-1.22;100.00
7170;BME280;3626;42.656;23.312;2023-01-28T00:12:37;93927.16;;;-1.23;100.00
7170;BME280;3626;42.656;23.312;2023-01-28T00:12:45;93924.63;;;-1.23;100.00
7170;BME280;3626;42.656;23.312;2023-01-28T00:12:51;93922.19;;;-1.24;100.00
7170;BME280;3626;42.656;23.312;2023-01-28T00:12:57;93921.53;;;-1.27;100.00
7170;BME280;3626;42.656;23.312;2023-01-28T00:13:06;93929.22;;;-1.28;100.00
7170;BME280;3626;42.656;23.312;2023-01-28T00:13:12;93929.22;;;-1.28;100.00
7170;BME280;3626;42.656;23.312;2023-01-28T00:13:19;93923.25;;;-1.27;100.00
7170;BME280;3626;42.656;23.312;2023-01-28T00:13:25;93930.84;;;-1.27;100.00
7170;BME280;3626;42.656;23.312;2023-01-28T00:13:31;93930.84;;;-1.27;100.00
7170;BME280;3626;42.656;23.312;2023-01-28T00:13:38;93925.78;;;-1.27;100.00
7170;BME280;3626;42.656;23.312;2023-01-28T00:13:44;93927.38;;;-1.26;100.00
7170;BME280;3626;42.656;23.312;2023-01-28T00:13:51;93930.72;;;-1.26;100.00
7170;BME280;3626;42.656;23.312;2023-01-28T00:13:57;93935.66;;;-1.24;100.00
7170;BME280;3626;42.656;23.312;2023-01-28T00:14:05;93933.94;;;-1.23;100.00
7170;BME280;3626;42.656;23.312;2023-01-28T00:14:11;93938.09;;;-1.22;100.00
7170;BME280;3626;42.656;23.312;2023-01-28T00:14:17;93933.84;;;-1.22;100.00
7170;BME280;3626;42.656;23.312;2023-01-28T00:14:24;93941.44;;;-1.22;100.00
7170;BME280;3626;42.656;23.312;2023-01-28T00:14:32;93929.00;;;-1.25;100.00
7170;BME280;3626;42.656;23.312;2023-01-28T00:14:39;93928.19;;;-1.26;100.00
7170;BME280;3626;42.656;23.312;2023-01-28T00:14:45;93924.84;;;-1.26;100.00
7170;BME280;3626;42.656;23.312;2023-01-28T00:14:52;93931.41;;;-1.23;100.00
7170;BME280;3626;42.656;23.312;2023-01-28T00:14:58;93934.06;;;-1.25;100.00
7170;BME280;3626;42.656;23.312;2023-01-28T00:15:05;93934.06;;;-1.25;100.00
7170;BME280;3626;42.656;23.312;2023-01-28T00:15:11;93937.38;;;-1.24;100.00
7170;BME280;3626;42.656;23.312;2023-01-28T00:15:17;93932.22;;;-1.23;100.00
7170;BME280;3626;42.656;23.312;2023-01-28T00:15:23;93927.25;;;-1.24;100.00
7170;BME280;3626;42.656;23.312;2023-01-28T00:15:32;93940.84;;;-1.26;100.00
7170;BME280;3626;42.656;23.312;2023-01-28T00:15:37;93934.19;;;-1.27;100.00
7170;BME280;3626;42.656;23.312;2023-01-28T00:15:43;93936.72;;;-1.27;100.00
7170;BME280;3626;42.656;23.312;2023-01-28T00:15:54;93932.44;;;-1.26;100.00
7170;BME280;3626;42.656;23.312;2023-01-28T00:16:01;93938.31;;;-1.26;100.00
7170;BME280;3626;42.656;23.312;2023-01-28T00:16:09;93930.84;;;-1.27;100.00
7170;BME280;3626;42.656;23.312;2023-01-28T00:16:16;93937.59;;;-1.28;100.00
7170;BME280;3626;42.656;23.312;2023-01-28T00:16:22;93937.59;;;-1.28;100.00
7170;BME280;3626;42.656;23.312;2023-01-28T00:16:28;93940.97;;;-1.27;100.00
7170;BME280;3626;42.656;23.312;2023-01-28T00:16:34;93944.41;;;-1.28;100.00
7170;BME280;3626;42.656;23.312;2023-01-28T00:16:41;93938.53;;;-1.29;100.00
7170;BME280;3626;42.656;23.312;2023-01-28T00:16:47;93938.53;;;-1.29;100.00
7170;BME280;3626;42.656;23.312;2023-01-28T00:16:52;93936.00;;;-1.29;100.00
7170;BME280;3626;42.656;23.312;2023-01-28T00:16:58;93930.94;;;-1.29;100.00
7170;BME280;3626;42.656;23.312;2023-01-28T00:17:05;93927.59;;;-1.29;100.00
7170;BME280;3626;42.656;23.312;2023-01-28T00:17:11;93937.72;;;-1.29;100.00
7170;BME280;3626;42.656;23.312;2023-01-28T00:17:17;93936.13;;;-1.30;100.00
7170;BME280;3626;42.656;23.312;2023-01-28T00:17:25;93937.84;;;-1.31;100.00
7170;BME280;3626;42.656;23.312;2023-01-28T00:17:33;93927.81;;;-1.32;100.00
7170;BME280;3626;42.656;23.312;2023-01-28T00:17:41;93939.56;;;-1.31;100.00
7170;BME280;3626;42.656;23.312;2023-01-28T00:17:47;93937.94;;;-1.32;100.00
7170;BME280;3626;42.656;23.312;2023-01-28T00:17:53;93934.59;;;-1.33;100.00
7170;BME280;3626;42.656;23.312;2023-01-28T00:17:59;93928.75;;;-1.33;100.00
7170;BME280;3626;42.656;23.312;2023-01-28T00:18:07;93933.81;;;-1.33;100.00
7170;BME280;3626;42.656;23.312;2023-01-28T00:18:13;93937.25;;;-1.34;100.00
7170;BME280;3626;42.656;23.312;2023-01-28T00:18:19;93935.53;;;-1.34;100.00
7170;BME280;3626;42.656;23.312;2023-01-28T00:18:27;93936.34;;;-1.33;100.00
7170;BME280;3626;42.656;23.312;2023-01-28T00:18:34;93943.00;;;-1.32;100.00
7170;BME280;3626;42.656;23.312;2023-01-28T00:18:43;93943.84;;;-1.32;100.00
7170;BME280;3626;42.656;23.312;2023-01-28T00:18:49;93937.13;;;-1.33;100.00
7170;BME280;3626;42.656;23.312;2023-01-28T00:18:55;93937.03;;;-1.31;100.00
7170;BME280;3626;42.656;23.312;2023-01-28T00:19:01;93940.47;;;-1.32;100.00
7170;BME280;3626;42.656;23.312;2023-01-28T00:19:07;93936.25;;;-1.32;100.00
7170;BME280;3626;42.656;23.312;2023-01-28T00:19:13;93940.47;;;-1.32;100.00
7170;BME280;3626;42.656;23.312;2023-01-28T00:19:19;93939.56;;;-1.31;100.00
7170;BME280;3626;42.656;23.312;2023-01-28T00:19:25;93939.56;;;-1.31;100.00
7170;BME280;3626;42.656;23.312;2023-01-28T00:19:31;93937.84;;;-1.31;100.00
7170;BME280;3626;42.656;23.312;2023-01-28T00:19:37;93936.94;;;-1.30;100.00
7170;BME280;3626;42.656;23.312;2023-01-28T00:19:42;93939.56;;;-1.31;100.00
7170;BME280;3626;42.656;23.312;2023-01-28T00:19:49;93937.84;;;-1.31;100.00
7170;BME280;3626;42.656;23.312;2023-01-28T00:19:55;93942.78;;;-1.29;100.00
7170;BME280;3626;42.656;23.312;2023-01-28T00:20:04;93940.25;;;-1.29;100.00
7170;BME280;3626;42.656;23.312;2023-01-28T00:20:11;93943.72;;;-1.30;100.00
7170;BME280;3626;42.656;23.312;2023-01-28T00:20:17;93943.84;;;-1.32;100.00
7170;BME280;3626;42.656;23.312;2023-01-28T00:20:25;93939.56;;;-1.31;100.00
7170;BME280;3626;42.656;23.312;2023-01-28T00:20:31;93933.81;;;-1.33;100.00
7170;BME280;3626;42.656;23.312;2023-01-28T00:20:37;93942.19;;;-1.33;100.00
7170;BME280;3626;42.656;23.312;2023-01-28T00:20:43;93937.13;;;-1.33;100.00
7170;BME280;3626;42.656;23.312;2023-01-28T00:20:55;93938.78;;;-1.32;100.00
7170;BME280;3626;42.656;23.312;2023-01-28T00:21:03;93942.19;;;-1.33;100.00
7170;BME280;3626;42.656;23.312;2023-01-28T00:21:13;93941.41;;;-1.33;100.00
7170;BME280;3626;42.656;23.312;2023-01-28T00:21:19;93937.94;;;-1.32;100.00
7170;BME280;3626;42.656;23.312;2023-01-28T00:21:25;93940.59;;;-1.34;100.00
7170;BME280;3626;42.656;23.312;2023-01-28T00:21:31;93938.78;;;-1.32;100.00
7170;BME280;3626;42.656;23.312;2023-01-28T00:21:38;93935.53;;;-1.34;100.00
7170;BME280;3626;42.656;23.312;2023-01-28T00:21:45;93941.41;;;-1.33;100.00
7170;BME280;3626;42.656;23.312;2023-01-28T00:21:51;93934.72;;;-1.34;100.00
7170;BME280;3626;42.656;23.312;2023-01-28T00:21:56;93935.53;;;-1.34;100.00
7170;BME280;3626;42.656;23.312;2023-01-28T00:22:02;93943.94;;;-1.33;100.00
7170;BME280;3626;42.656;23.312;2023-01-28T00:22:09;93935.53;;;-1.34;100.00
7170;BME280;3626;42.656;23.312;2023-01-28T00:22:15;93951.53;;;-1.33;100.00
7170;BME280;3626;42.656;23.312;2023-01-28T00:22:20;93942.19;;;-1.33;100.00
7170;BME280;3626;42.656;23.312;2023-01-28T00:22:26;93947.25;;;-1.33;100.00
7170;BME280;3626;42.656;23.312;2023-01-28T00:22:33;93940.47;;;-1.32;100.00
7170;BME280;3626;42.656;23.312;2023-01-28T00:22:39;93943.00;;;-1.32;100.00
7170;BME280;3626;42.656;23.312;2023-01-28T00:22:46;93947.25;;;-1.33;100.00
7170;BME280;3626;42.656;23.312;2023-01-28T00:22:53;93945.53;;;-1.32;100.00
7170;BME280;3626;42.656;23.312;2023-01-28T00:23:00;93944.63;;;-1.31;100.00
7170;BME280;3626;42.656;23.312;2023-01-28T00:23:06;93946.38;;;-1.32;100.00
7170;BME280;3626;42.656;23.312;2023-01-28T00:23:12;93938.78;;;-1.32;100.00
7170;BME280;3626;42.656;23.312;2023-01-28T00:23:18;93941.19;;;-1.30;100.00
7170;BME280;3626;42.656;23.312;2023-01-28T00:23:24;93941.31;;;-1.32;100.00
7170;BME280;3626;42.656;23.312;2023-01-28T00:23:31;93937.94;;;-1.32;100.00
7170;BME280;3626;42.656;23.312;2023-01-28T00:23:39;93942.09;;;-1.31;100.00
7170;BME280;3626;42.656;23.312;2023-01-28T00:23:48;93941.97;;;-1.30;100.00
7170;BME280;3626;42.656;23.312;2023-01-28T00:23:55;93941.19;;;-1.30;100.00
7170;BME280;3626;42.656;23.312;2023-01-28T00:24:01;93947.84;;;-1.29;100.00
7170;BME280;3626;42.656;23.312;2023-01-28T00:24:11;93940.13;;;-1.28;100.00
7170;BME280;3626;42.656;23.312;2023-01-28T00:24:19;93943.59;;;-1.29;100.00
7170;BME280;3626;42.656;23.312;2023-01-28T00:24:25;93946.94;;;-1.28;100.00
7170;BME280;3626;42.656;23.312;2023-01-28T00:24:31;93943.59;;;-1.29;100.00
7170;BME280;3626;42.656;23.312;2023-01-28T00:24:36;93945.19;;;-1.28;100.00
7170;BME280;3626;42.656;23.312;2023-01-28T00:24:42;93942.78;;;-1.29;100.00
7170;BME280;3626;42.656;23.312;2023-01-28T00:24:50;93943.50;;;-1.27;100.00
7170;BME280;3626;42.656;23.312;2023-01-28T00:24:58;93941.88;;;-1.28;100.00
7170;BME280;3626;42.656;23.312;2023-01-28T00:25:04;93949.47;;;-1.28;100.00
7170;BME280;3626;42.656;23.312;2023-01-28T00:25:10;93947.84;;;-1.29;100.00
7170;BME280;3626;42.656;23.312;2023-01-28T00:25:16;93944.53;;;-1.30;100.00
7170;BME280;3626;42.656;23.312;2023-01-28T00:25:22;93946.25;;;-1.30;100.00
7170;BME280;3626;42.656;23.312;2023-01-28T00:25:28;93945.31;;;-1.29;100.00
7170;BME280;3626;42.656;23.312;2023-01-28T00:25:36;93938.53;;;-1.29;100.00
7170;BME280;3626;42.656;23.312;2023-01-28T00:25:42;93948.66;;;-1.29;100.00
7170;BME280;3626;42.656;23.312;2023-01-28T00:25:48;93944.41;;;-1.28;100.00
7170;BME280;3626;42.656;23.312;2023-01-28T00:25:57;93940.13;;;-1.28;100.00
7170;BME280;3626;42.656;23.312;2023-01-28T00:26:05;93947.63;;;-1.26;100.00
7170;BME280;3626;42.656;23.312;2023-01-28T00:26:12;93946.84;;;-1.27;100.00
7170;BME280;3626;42.656;23.312;2023-01-28T00:26:20;93946.72;;;-1.25;100.00
7170;BME280;3626;42.656;23.312;2023-01-28T00:26:26;93939.91;;;-1.24;100.00
7170;BME280;3626;42.656;23.312;2023-01-28T00:26:32;93944.06;;;-1.23;100.00
7170;BME280;3626;42.656;23.312;2023-01-28T00:26:37;93943.97;;;-1.22;100.00
7170;BME280;3626;42.656;23.312;2023-01-28T00:26:46;93944.78;;;-1.21;100.00
7170;BME280;3626;42.656;23.312;2023-01-28T00:26:53;93947.31;;;-1.21;100.00
7170;BME280;3626;42.656;23.312;2023-01-28T00:26:59;93943.03;;;-1.21;100.00
7170;BME280;3626;42.656;23.312;2023-01-28T00:27:07;93944.78;;;-1.21;100.00
7170;BME280;3626;42.656;23.312;2023-01-28T00:27:13;93945.56;;;-1.21;100.00
7170;BME280;3626;42.656;23.312;2023-01-28T00:27:19;93942.22;;;-1.21;100.00
7170;BME280;3626;42.656;23.312;2023-01-28T00:27:25;93945.56;;;-1.21;100.00
7170;BME280;3626;42.656;23.312;2023-01-28T00:27:31;93944.78;;;-1.21;100.00
7170;BME280;3626;42.656;23.312;2023-01-28T00:27:37;93944.06;;;-1.23;100.00
7170;BME280;3626;42.656;23.312;2023-01-28T00:27:42;93939.81;;;-1.23;100.00
7170;BME280;3626;42.656;23.312;2023-01-28T00:27:49;93943.97;;;-1.22;100.00
7170;BME280;3626;42.656;23.312;2023-01-28T00:27:55;93946.50;;;-1.22;100.00
7170;BME280;3626;42.656;23.312;2023-01-28T00:28:01;93945.56;;;-1.21;100.00
7170;BME280;3626;42.656;23.312;2023-01-28T00:28:08;93937.06;;;-1.20;100.00
7170;BME280;3626;42.656;23.312;2023-01-28T00:28:14;93944.56;;;-1.18;100.00
7170;BME280;3626;42.656;23.312;2023-01-28T00:28:21;93945.34;;;-1.18;100.00
7170;BME280;3626;42.656;23.312;2023-01-28T00:28:27;93944.44;;;-1.17;100.00
7170;BME280;3626;42.656;23.312;2023-01-28T00:28:33;93943.50;;;-1.16;100.00
7170;BME280;3626;42.656;23.312;2023-01-28T00:28:41;93945.94;;;-1.14;100.00
7170;BME280;3626;42.656;23.312;2023-01-28T00:28:47;93947.63;;;-1.15;100.00
7170;BME280;3626;42.656;23.312;2023-01-28T00:28:55;93946.75;;;-1.14;100.00
7170;BME280;3626;42.656;23.312;2023-01-28T00:29:01;93949.16;;;-1.12;100.00
7170;BME280;3626;42.656;23.312;2023-01-28T00:29:07;93949.97;;;-1.12;100.00
7170;BME280;3626;42.656;23.312;2023-01-28T00:29:15;93954.22;;;-1.12;100.00
7170;BME280;3626;42.656;23.312;2023-01-28T00:29:22;93945.69;;;-1.11;100.00
7170;BME280;3626;42.656;23.312;2023-01-28T00:29:27;93940.88;;;-1.14;100.00
7170;BME280;3626;42.656;23.312;2023-01-28T00:29:33;93942.56;;;-1.15;100.00
7170;BME280;3626;42.656;23.312;2023-01-28T00:29:39;93942.56;;;-1.15;100.00
7170;BME280;3626;42.656;23.312;2023-01-28T00:29:45;93943.50;;;-1.16;100.00
7170;BME280;3626;42.656;23.312;2023-01-28T00:29:52;93938.44;;;-1.16;100.00
7170;BME280;3626;42.656;23.312;2023-01-28T00:29:59;93946.75;;;-1.14;100.00
7170;BME280;3626;42.656;23.312;2023-01-28T00:30:06;93950.19;;;-1.15;100.00
7170;BME280;3626;42.656;23.312;2023-01-28T00:30:13;93946.03;;;-1.16;100.00
7170;BME280;3626;42.656;23.312;2023-01-28T00:30:19;93946.97;;;-1.17;100.00
7170;BME280;3626;42.656;23.312;2023-01-28T00:30:25;93946.97;;;-1.17;100.00
7170;BME280;3626;42.656;23.312;2023-01-28T00:30:31;93951.09;;;-1.16;100.00
7170;BME280;3626;42.656;23.312;2023-01-28T00:30:37;93947.75;;;-1.16;100.00
7170;BME280;3626;42.656;23.312;2023-01-28T00:30:43;93950.41;;;-1.18;100.00
7170;BME280;3626;42.656;23.312;2023-01-28T00:30:49;93942.81;;;-1.18;100.00
7170;BME280;3626;42.656;23.312;2023-01-28T00:30:55;93945.34;;;-1.18;100.00
7170;BME280;3626;42.656;23.312;2023-01-28T00:31:05;93941.09;;;-1.17;100.00
7170;BME280;3626;42.656;23.312;2023-01-28T00:31:18;93947.97;;;-1.19;100.00
7170;BME280;3626;42.656;23.312;2023-01-28T00:31:26;93944.56;;;-1.18;100.00
7170;BME280;3626;42.656;23.312;2023-01-28T00:31:32;93950.50;;;-1.19;100.00
7170;BME280;3626;42.656;23.312;2023-01-28T00:31:39;93950.41;;;-1.18;100.00
7170;BME280;3626;42.656;23.312;2023-01-28T00:31:45;93944.56;;;-1.18;100.00
7170;BME280;3626;42.656;23.312;2023-01-28T00:31:51;93946.28;;;-1.19;100.00
7170;BME280;3626;42.656;23.312;2023-01-28T00:31:57;93950.41;;;-1.18;100.00
7170;BME280;3626;42.656;23.312;2023-01-28T00:32:03;93943.63;;;-1.17;100.00
7170;BME280;3626;42.656;23.312;2023-01-28T00:32:09;93945.34;;;-1.18;100.00
7170;BME280;3626;42.656;23.312;2023-01-28T00:32:16;93950.28;;;-1.16;100.00
7170;BME280;3626;42.656;23.312;2023-01-28T00:32:22;93945.22;;;-1.16;100.00
7170;BME280;3626;42.656;23.312;2023-01-28T00:32:28;93946.97;;;-1.17;100.00
7170;BME280;3626;42.656;23.312;2023-01-28T00:32:37;93946.03;;;-1.16;100.00
7170;BME280;3626;42.656;23.312;2023-01-28T00:32:43;93947.75;;;-1.16;100.00
7170;BME280;3626;42.656;23.312;2023-01-28T00:32:49;93948.56;;;-1.16;100.00
7170;BME280;3626;42.656;23.312;2023-01-28T00:32:55;93948.56;;;-1.16;100.00
7170;BME280;3626;42.656;23.312;2023-01-28T00:33:01;93956.06;;;-1.14;100.00
7170;BME280;3626;42.656;23.312;2023-01-28T00:33:09;93950.19;;;-1.15;100.00
7170;BME280;3626;42.656;23.312;2023-01-28T00:33:15;93947.56;;;-1.13;100.00
7170;BME280;3626;42.656;23.312;2023-01-28T00:33:23;93947.56;;;-1.13;100.00
7170;BME280;3626;42.656;23.312;2023-01-28T00:33:29;93944.22;;;-1.14;100.00
7170;BME280;3626;42.656;23.312;2023-01-28T00:33:36;93944.09;;;-1.12;100.00
7170;BME280;3626;42.656;23.312;2023-01-28T00:33:42;93946.63;;;-1.12;100.00
7170;BME280;3626;42.656;23.312;2023-01-28T00:33:52;93948.34;;;-1.13;100.00
7170;BME280;3626;42.656;23.312;2023-01-28T00:33:58;93948.47;;;-1.14;100.00
7170;BME280;3626;42.656;23.312;2023-01-28T00:34:04;93948.56;;;-1.16;100.00
7170;BME280;3626;42.656;23.312;2023-01-28T00:34:10;93946.75;;;-1.14;100.00
7170;BME280;3626;42.656;23.312;2023-01-28T00:34:17;93944.31;;;-1.15;100.00
7170;BME280;3626;42.656;23.312;2023-01-28T00:34:22;93946.84;;;-1.15;100.00
7170;BME280;3626;42.656;23.312;2023-01-28T00:34:28;93940.03;;;-1.15;100.00
7170;BME280;3626;42.656;23.312;2023-01-28T00:34:34;93945.09;;;-1.15;100.00
7170;BME280;3626;42.656;23.312;2023-01-28T00:34:40;93943.41;;;-1.14;100.00
7170;BME280;3626;42.656;23.312;2023-01-28T00:34:46;93940.03;;;-1.15;100.00
7170;BME280;3626;42.656;23.312;2023-01-28T00:34:54;93940.03;;;-1.15;100.00
7170;BME280;3626;42.656;23.312;2023-01-28T00:35:00;93948.47;;;-1.14;100.00
7170;BME280;3626;42.656;23.312;2023-01-28T00:35:08;93950.09;;;-1.13;100.00